createdAt,value
2022-08-26T00:00:24.878Z,20.35
2022-08-26T00:01:29.885Z,20.33
2022-08-26T00:02:24.902Z,20.28
2022-08-26T00:03:24.842Z,20.24
2022-08-26T00:04:24.911Z,20.20
2022-08-26T00:05:24.823Z,20.16
2022-08-26T00:06:24.812Z,20.15
2022-08-26T00:07:24.802Z,20.12
2022-08-26T00:08:24.793Z,20.09
2022-08-26T00:09:25.061Z,20.09
2022-08-26T00:10:25.873Z,20.03
2022-08-26T00:11:26.616Z,20.03
2022-08-26T00:12:31.560Z,20.02
2022-08-26T00:13:24.743Z,19.98
2022-08-26T00:14:29.583Z,19.95
2022-08-26T00:15:24.723Z,19.95
2022-08-26T00:16:24.776Z,19.94
2022-08-26T00:17:24.698Z,19.94
2022-08-26T00:18:24.691Z,19.94
2022-08-26T00:19:24.692Z,19.94
2022-08-26T00:20:24.667Z,19.93
2022-08-26T00:21:24.655Z,19.93
2022-08-26T00:22:24.648Z,19.94
2022-08-26T00:23:24.633Z,19.91
2022-08-26T00:24:24.647Z,19.91
2022-08-26T00:25:24.613Z,19.93
2022-08-26T00:26:24.608Z,19.93
2022-08-26T00:27:24.600Z,19.91
2022-08-26T00:28:24.585Z,19.93
2022-08-26T00:29:24.588Z,19.91
2022-08-26T00:30:24.566Z,19.91
2022-08-26T00:31:24.596Z,19.90
2022-08-26T00:32:24.543Z,19.90
2022-08-26T00:33:24.530Z,19.93
2022-08-26T00:34:24.544Z,19.93
2022-08-26T00:35:24.506Z,19.93
2022-08-26T00:36:24.487Z,19.93
2022-08-26T00:37:24.479Z,19.93
2022-08-26T00:38:24.469Z,19.91
2022-08-26T00:39:24.491Z,19.91
2022-08-26T00:40:24.515Z,19.90
2022-08-26T00:41:24.439Z,19.87
2022-08-26T00:42:24.425Z,19.84
2022-08-26T00:43:24.412Z,19.79
2022-08-26T00:44:24.417Z,19.78
2022-08-26T00:45:24.411Z,19.78
2022-08-26T00:46:24.379Z,19.75
2022-08-26T00:47:24.384Z,19.73
2022-08-26T00:48:24.356Z,19.73
2022-08-26T00:49:24.374Z,19.72
2022-08-26T00:50:24.335Z,19.69
2022-08-26T00:51:24.330Z,19.66
2022-08-26T00:52:24.323Z,19.66
2022-08-26T00:53:27.891Z,19.61
2022-08-26T00:54:24.313Z,19.60
2022-08-26T00:55:24.288Z,19.58
2022-08-26T00:56:24.288Z,19.55
2022-08-26T00:57:24.286Z,19.51
2022-08-26T00:58:24.254Z,19.46
2022-08-26T00:59:24.267Z,19.42
2022-08-26T01:00:24.235Z,19.40
2022-08-26T01:01:24.248Z,19.38
2022-08-26T01:02:24.244Z,19.36
2022-08-26T01:03:24.207Z,19.33
2022-08-26T01:04:24.212Z,19.33
2022-08-26T01:05:24.189Z,19.31
2022-08-26T01:06:24.169Z,19.28
2022-08-26T01:07:24.164Z,19.28
2022-08-26T01:08:24.368Z,19.24
2022-08-26T01:09:24.141Z,19.24
2022-08-26T01:10:24.143Z,19.21
2022-08-26T01:11:24.131Z,19.20
2022-08-26T01:12:24.107Z,19.18
2022-08-26T01:13:24.100Z,19.18
2022-08-26T01:14:24.085Z,19.18
2022-08-26T01:15:24.103Z,19.20
2022-08-26T01:16:24.088Z,19.20
2022-08-26T01:17:24.058Z,19.21
2022-08-26T01:18:24.045Z,19.18
2022-08-26T01:19:24.049Z,19.20
2022-08-26T01:20:24.039Z,19.18
2022-08-26T01:21:24.022Z,19.20
2022-08-26T01:22:28.119Z,19.20
2022-08-26T01:23:24.000Z,19.23
2022-08-26T01:24:23.981Z,19.21
2022-08-26T01:25:23.994Z,19.21
2022-08-26T01:26:23.961Z,19.23
2022-08-26T01:27:23.962Z,19.23
2022-08-26T01:28:23.949Z,19.20
2022-08-26T01:29:23.932Z,19.20
2022-08-26T01:30:23.935Z,19.17
2022-08-26T01:31:24.007Z,19.17
2022-08-26T01:32:23.896Z,19.20
2022-08-26T01:33:23.889Z,19.18
2022-08-26T01:34:23.879Z,19.17
2022-08-26T01:35:23.889Z,19.17
2022-08-26T01:36:23.859Z,19.15
2022-08-26T01:37:23.850Z,19.15
2022-08-26T01:38:23.852Z,19.14
2022-08-26T01:39:23.829Z,19.14
2022-08-26T01:40:23.944Z,19.13
2022-08-26T01:41:27.531Z,19.11
2022-08-26T01:42:23.797Z,19.13
2022-08-26T01:43:23.787Z,19.11
2022-08-26T01:44:23.770Z,19.10
2022-08-26T01:45:23.784Z,19.08
2022-08-26T01:46:23.751Z,19.08
2022-08-26T01:47:23.745Z,19.06
2022-08-26T01:48:23.732Z,19.05
2022-08-26T01:49:23.730Z,19.08
2022-08-26T01:50:28.093Z,19.08
2022-08-26T01:51:23.710Z,19.08
2022-08-26T01:52:23.687Z,19.10
2022-08-26T01:53:23.682Z,19.08
2022-08-26T01:54:23.669Z,19.08
2022-08-26T01:55:32.436Z,19.06
2022-08-26T01:56:23.667Z,19.05
2022-08-26T01:57:23.640Z,19.05
2022-08-26T01:58:23.626Z,19.05
2022-08-26T01:59:23.619Z,19.02
2022-08-26T02:00:23.622Z,19.02
2022-08-26T02:01:23.669Z,19.02
2022-08-26T02:02:24.538Z,19.01
2022-08-26T02:03:23.580Z,19.01
2022-08-26T02:04:23.602Z,18.99
2022-08-26T02:05:23.577Z,18.98
2022-08-26T02:06:23.540Z,18.97
2022-08-26T02:07:23.535Z,18.95
2022-08-26T02:08:24.668Z,18.95
2022-08-26T02:09:23.522Z,18.95
2022-08-26T02:10:23.517Z,18.92
2022-08-26T02:11:23.496Z,18.91
2022-08-26T02:12:23.483Z,18.90
2022-08-26T02:13:23.473Z,18.90
2022-08-26T02:14:23.464Z,18.87
2022-08-26T02:15:23.484Z,18.84
2022-08-26T02:16:23.547Z,18.83
2022-08-26T02:17:23.432Z,18.83
2022-08-26T02:18:23.415Z,18.80
2022-08-26T02:19:23.494Z,18.79
2022-08-26T02:20:23.412Z,18.76
2022-08-26T02:21:25.035Z,18.76
2022-08-26T02:22:24.533Z,18.74
2022-08-26T02:23:24.055Z,18.72
2022-08-26T02:24:23.354Z,18.73
2022-08-26T02:25:23.376Z,18.70
2022-08-26T02:26:23.347Z,18.70
2022-08-26T02:27:23.326Z,18.70
2022-08-26T02:28:26.621Z,18.68
2022-08-26T02:29:23.306Z,18.68
2022-08-26T02:30:23.310Z,18.67
2022-08-26T02:31:23.350Z,18.65
2022-08-26T02:32:23.271Z,18.62
2022-08-26T02:33:23.268Z,18.62
2022-08-26T02:34:23.248Z,18.61
2022-08-26T02:35:23.263Z,18.61
2022-08-26T02:36:23.228Z,18.59
2022-08-26T02:37:23.222Z,18.58
2022-08-26T02:38:23.210Z,18.55
2022-08-26T02:39:23.201Z,18.54
2022-08-26T02:40:23.235Z,18.52
2022-08-26T02:41:23.186Z,18.52
2022-08-26T02:42:23.169Z,18.52
2022-08-26T02:43:31.218Z,18.47
2022-08-26T02:44:23.148Z,18.49
2022-08-26T02:45:23.815Z,18.49
2022-08-26T02:46:29.995Z,18.49
2022-08-26T02:47:24.930Z,18.49
2022-08-26T02:48:23.102Z,18.46
2022-08-26T02:49:23.099Z,18.44
2022-08-26T02:50:23.097Z,18.46
2022-08-26T02:51:23.076Z,18.46
2022-08-26T02:52:23.060Z,18.46
2022-08-26T02:53:25.479Z,18.46
2022-08-26T02:54:23.039Z,18.46
2022-08-26T02:55:24.677Z,18.46
2022-08-26T02:56:23.016Z,18.46
2022-08-26T02:57:23.015Z,18.44
2022-08-26T02:58:22.996Z,18.44
2022-08-26T02:59:24.300Z,18.44
2022-08-26T03:00:23.016Z,18.46
2022-08-26T03:01:23.054Z,18.44
2022-08-26T03:02:23.024Z,18.47
2022-08-26T03:03:23.618Z,18.44
2022-08-26T03:04:22.934Z,18.44
2022-08-26T03:05:24.031Z,18.43
2022-08-26T03:06:22.913Z,18.43
2022-08-26T03:07:22.918Z,18.42
2022-08-26T03:08:22.901Z,18.40
2022-08-26T03:09:22.887Z,18.40
2022-08-26T03:10:22.888Z,18.39
2022-08-26T03:11:22.874Z,18.39
2022-08-26T03:12:22.852Z,18.36
2022-08-26T03:13:22.842Z,18.36
2022-08-26T03:14:22.828Z,18.34
2022-08-26T03:15:22.841Z,18.31
2022-08-26T03:16:22.870Z,18.29
2022-08-26T03:17:22.805Z,18.27
2022-08-26T03:18:22.795Z,18.25
2022-08-26T03:19:22.777Z,18.25
2022-08-26T03:20:22.791Z,18.24
2022-08-26T03:21:22.755Z,18.25
2022-08-26T03:22:22.751Z,18.21
2022-08-26T03:23:22.733Z,18.21
2022-08-26T03:24:22.729Z,18.19
2022-08-26T03:25:22.730Z,18.19
2022-08-26T03:26:22.713Z,18.17
2022-08-26T03:27:22.701Z,18.15
2022-08-26T03:28:22.689Z,18.15
2022-08-26T03:29:22.696Z,18.15
2022-08-26T03:30:22.685Z,18.10
2022-08-26T03:31:24.598Z,18.13
2022-08-26T03:32:22.646Z,18.13
2022-08-26T03:33:22.634Z,18.15
2022-08-26T03:34:22.625Z,18.15
2022-08-26T03:35:22.639Z,18.19
2022-08-26T03:36:22.603Z,18.19
2022-08-26T03:37:22.587Z,18.19
2022-08-26T03:38:22.583Z,18.21
2022-08-26T03:39:22.567Z,18.17
2022-08-26T03:40:22.631Z,18.17
2022-08-26T03:41:22.547Z,18.13
2022-08-26T03:42:22.542Z,18.10
2022-08-26T03:43:22.528Z,18.09
2022-08-26T03:44:22.522Z,18.07
2022-08-26T03:45:22.520Z,18.04
2022-08-26T03:46:22.530Z,18.03
2022-08-26T03:47:22.484Z,18.00
2022-08-26T03:48:22.479Z,17.99
2022-08-26T03:49:22.463Z,17.99
2022-08-26T03:50:22.797Z,17.97
2022-08-26T03:51:22.445Z,17.99
2022-08-26T03:52:22.435Z,17.97
2022-08-26T03:53:22.419Z,17.97
2022-08-26T03:54:22.414Z,17.97
2022-08-26T03:55:23.685Z,17.97
2022-08-26T03:56:22.393Z,17.94
2022-08-26T03:57:22.378Z,17.94
2022-08-26T03:58:22.375Z,17.91
2022-08-26T03:59:22.363Z,17.92
2022-08-26T04:00:22.371Z,17.92
2022-08-26T04:01:22.381Z,17.91
2022-08-26T04:02:22.330Z,17.92
2022-08-26T04:03:22.349Z,17.92
2022-08-26T04:04:22.782Z,17.91
2022-08-26T04:05:22.312Z,17.91
2022-08-26T04:06:22.308Z,17.89
2022-08-26T04:07:22.271Z,17.89
2022-08-26T04:08:22.267Z,17.89
2022-08-26T04:09:22.256Z,17.91
2022-08-26T04:10:22.264Z,17.92
2022-08-26T04:11:22.238Z,17.91
2022-08-26T04:12:22.228Z,17.89
2022-08-26T04:13:22.214Z,17.92
2022-08-26T04:14:22.207Z,17.94
2022-08-26T04:15:22.216Z,17.92
2022-08-26T04:16:22.224Z,17.92
2022-08-26T04:17:24.929Z,17.94
2022-08-26T04:18:22.167Z,17.92
2022-08-26T04:19:22.147Z,17.91
2022-08-26T04:20:22.161Z,17.91
2022-08-26T04:21:22.126Z,17.91
2022-08-26T04:22:24.229Z,17.92
2022-08-26T04:23:22.108Z,17.94
2022-08-26T04:24:22.110Z,17.94
2022-08-26T04:25:22.104Z,17.95
2022-08-26T04:26:22.085Z,17.95
2022-08-26T04:27:22.063Z,17.94
2022-08-26T04:28:22.058Z,17.95
2022-08-26T04:29:22.044Z,17.94
2022-08-26T04:30:22.059Z,17.95
2022-08-26T04:31:22.102Z,17.92
2022-08-26T04:32:22.019Z,17.91
2022-08-26T04:33:33.219Z,17.91
2022-08-26T04:34:22.003Z,17.89
2022-08-26T04:35:25.808Z,17.89
2022-08-26T04:36:21.980Z,17.88
2022-08-26T04:37:21.959Z,17.88
2022-08-26T04:38:21.955Z,17.85
2022-08-26T04:39:21.941Z,17.88
2022-08-26T04:40:22.060Z,17.85
2022-08-26T04:41:21.916Z,17.82
2022-08-26T04:42:22.865Z,17.79
2022-08-26T04:43:21.897Z,17.79
2022-08-26T04:44:21.893Z,17.78
2022-08-26T04:45:22.652Z,17.78
2022-08-26T04:46:21.914Z,17.76
2022-08-26T04:47:21.857Z,17.74
2022-08-26T04:48:21.849Z,17.74
2022-08-26T04:49:21.834Z,17.74
2022-08-26T04:50:21.872Z,17.74
2022-08-26T04:51:21.812Z,17.74
2022-08-26T04:52:21.809Z,17.74
2022-08-26T04:53:21.801Z,17.73
2022-08-26T04:54:21.788Z,17.76
2022-08-26T04:55:21.790Z,17.74
2022-08-26T04:56:21.789Z,17.69
2022-08-26T04:57:21.752Z,17.69
2022-08-26T04:58:21.745Z,17.66
2022-08-26T04:59:21.727Z,17.67
2022-08-26T05:00:21.740Z,17.64
2022-08-26T05:01:21.735Z,17.63
2022-08-26T05:02:21.701Z,17.64
2022-08-26T05:03:21.686Z,17.63
2022-08-26T05:04:21.702Z,17.63
2022-08-26T05:05:21.686Z,17.63
2022-08-26T05:06:22.086Z,17.63
2022-08-26T05:07:21.645Z,17.63
2022-08-26T05:08:21.638Z,17.64
2022-08-26T05:09:21.624Z,17.64
2022-08-26T05:10:21.640Z,17.64
2022-08-26T05:11:22.046Z,17.64
2022-08-26T05:12:21.597Z,17.64
2022-08-26T05:13:21.599Z,17.66
2022-08-26T05:14:21.574Z,17.64
2022-08-26T05:15:21.581Z,17.63
2022-08-26T05:16:21.596Z,17.64
2022-08-26T05:17:21.537Z,17.66
2022-08-26T05:18:22.829Z,17.67
2022-08-26T05:19:21.519Z,17.70
2022-08-26T05:20:25.608Z,17.71
2022-08-26T05:21:21.506Z,17.74
2022-08-26T05:22:21.491Z,17.74
2022-08-26T05:23:21.477Z,17.79
2022-08-26T05:24:21.471Z,17.81
2022-08-26T05:25:21.475Z,17.81
2022-08-26T05:26:22.903Z,17.84
2022-08-26T05:27:21.435Z,17.84
2022-08-26T05:28:21.429Z,17.85
2022-08-26T05:29:21.412Z,17.87
2022-08-26T05:30:21.428Z,17.87
2022-08-26T05:31:21.459Z,17.89
2022-08-26T05:32:21.387Z,17.91
2022-08-26T05:33:21.372Z,17.91
2022-08-26T05:34:21.364Z,17.94
2022-08-26T05:35:21.367Z,17.99
2022-08-26T05:36:21.345Z,18.00
2022-08-26T05:37:21.330Z,18.02
2022-08-26T05:38:21.325Z,18.04
2022-08-26T05:39:21.307Z,18.06
2022-08-26T05:40:21.415Z,18.07
2022-08-26T05:41:21.325Z,18.09
2022-08-26T05:42:21.308Z,18.10
2022-08-26T05:43:21.287Z,18.15
2022-08-26T05:44:21.264Z,18.19
2022-08-26T05:45:21.271Z,18.19
2022-08-26T05:46:21.307Z,18.19
2022-08-26T05:47:21.226Z,18.22
2022-08-26T05:48:24.434Z,18.25
2022-08-26T05:49:22.475Z,18.29
2022-08-26T05:50:21.224Z,18.34
2022-08-26T05:51:25.760Z,18.33
2022-08-26T05:52:21.184Z,18.39
2022-08-26T05:53:21.162Z,18.42
2022-08-26T05:54:21.905Z,18.43
2022-08-26T05:55:21.164Z,18.47
2022-08-26T05:56:21.143Z,18.49
2022-08-26T05:57:21.122Z,18.54
2022-08-26T05:58:21.122Z,18.55
2022-08-26T05:59:24.108Z,18.62
2022-08-26T06:00:21.142Z,18.68
2022-08-26T06:01:21.476Z,18.79
2022-08-26T06:02:21.140Z,18.86
2022-08-26T06:03:21.061Z,18.97
2022-08-26T06:04:21.052Z,19.05
2022-08-26T06:05:21.055Z,19.13
2022-08-26T06:06:27.595Z,19.23
2022-08-26T06:07:21.023Z,19.28
2022-08-26T06:08:21.011Z,19.38
2022-08-26T06:09:20.996Z,19.46
2022-08-26T06:10:32.077Z,19.57
2022-08-26T06:11:20.979Z,19.68
2022-08-26T06:12:20.969Z,19.76
2022-08-26T06:13:20.963Z,19.88
2022-08-26T06:14:20.948Z,19.97
2022-08-26T06:15:20.953Z,20.08
2022-08-26T06:16:20.984Z,20.16
2022-08-26T06:17:20.911Z,20.25
2022-08-26T06:18:20.916Z,20.39
2022-08-26T06:19:20.892Z,20.53
2022-08-26T06:20:20.905Z,20.66
2022-08-26T06:21:20.878Z,20.80
2022-08-26T06:22:23.320Z,20.93
2022-08-26T06:23:20.846Z,21.04
2022-08-26T06:24:20.879Z,21.16
2022-08-26T06:25:20.850Z,21.23
2022-08-26T06:26:20.827Z,21.27
2022-08-26T06:27:20.810Z,21.34
2022-08-26T06:28:20.801Z,21.36
2022-08-26T06:29:24.299Z,21.42
2022-08-26T06:30:20.807Z,21.48
2022-08-26T06:31:20.843Z,21.50
2022-08-26T06:32:20.758Z,21.57
2022-08-26T06:33:20.746Z,21.63
2022-08-26T06:34:20.739Z,21.67
2022-08-26T06:35:20.723Z,21.64
2022-08-26T06:36:20.736Z,21.66
2022-08-26T06:37:20.703Z,21.69
2022-08-26T06:38:20.696Z,21.71
2022-08-26T06:39:20.698Z,21.75
2022-08-26T06:40:20.724Z,21.75
2022-08-26T06:41:20.677Z,21.82
2022-08-26T06:42:20.654Z,21.85
2022-08-26T06:43:20.643Z,21.85
2022-08-26T06:44:20.901Z,21.95
2022-08-26T06:45:20.641Z,22.02
2022-08-26T06:46:20.694Z,22.09
2022-08-26T06:47:20.597Z,22.13
2022-08-26T06:48:20.591Z,22.14
2022-08-26T06:49:25.751Z,22.22
2022-08-26T06:50:20.578Z,22.29
2022-08-26T06:51:20.571Z,22.39
2022-08-26T06:52:24.327Z,22.46
2022-08-26T06:53:20.535Z,22.54
2022-08-26T06:54:20.529Z,22.64
2022-08-26T06:55:20.521Z,22.60
2022-08-26T06:56:20.532Z,22.62
2022-08-26T06:57:20.499Z,22.50
2022-08-26T06:58:20.487Z,22.35
2022-08-26T06:59:20.473Z,22.35
2022-08-26T07:00:20.466Z,22.32
2022-08-26T07:01:20.543Z,22.38
2022-08-26T07:02:20.809Z,22.39
2022-08-26T07:03:20.433Z,22.44
2022-08-26T07:04:22.388Z,22.44
2022-08-26T07:05:20.412Z,22.43
2022-08-26T07:06:20.423Z,22.43
2022-08-26T07:07:22.068Z,22.47
2022-08-26T07:08:20.385Z,22.46
2022-08-26T07:09:20.402Z,22.41
2022-08-26T07:10:20.364Z,22.37
2022-08-26T07:11:20.368Z,22.35
2022-08-26T07:12:20.342Z,22.31
2022-08-26T07:13:30.567Z,22.29
2022-08-26T07:14:21.246Z,22.27
2022-08-26T07:15:20.306Z,22.25
2022-08-26T07:16:20.375Z,22.23
2022-08-26T07:17:20.455Z,22.28
2022-08-26T07:18:20.281Z,22.39
2022-08-26T07:19:29.016Z,22.47
2022-08-26T07:20:20.269Z,22.46
2022-08-26T07:21:20.265Z,22.47
2022-08-26T07:22:20.238Z,22.56
2022-08-26T07:23:20.227Z,22.60
2022-08-26T07:24:20.217Z,22.69
2022-08-26T07:25:20.220Z,22.89
2022-08-26T07:26:20.218Z,23.04
2022-08-26T07:27:20.182Z,23.24
2022-08-26T07:28:20.179Z,23.46
2022-08-26T07:29:20.186Z,23.65
2022-08-26T07:30:20.155Z,23.86
2022-08-26T07:31:20.257Z,24.04
2022-08-26T07:32:20.136Z,24.24
2022-08-26T07:33:20.122Z,24.42
2022-08-26T07:34:20.110Z,24.60
2022-08-26T07:35:20.105Z,24.80
2022-08-26T07:36:20.111Z,24.95
2022-08-26T07:37:20.084Z,25.12
2022-08-26T07:38:20.068Z,25.30
2022-08-26T07:39:20.162Z,25.43
2022-08-26T07:40:20.124Z,25.43
2022-08-26T07:41:20.175Z,25.31
2022-08-26T07:42:20.035Z,25.31
2022-08-26T07:43:20.027Z,25.46
2022-08-26T07:44:20.010Z,25.50
2022-08-26T07:45:20.011Z,25.49
2022-08-26T07:46:20.777Z,25.59
2022-08-26T07:47:25.898Z,25.53
2022-08-26T07:48:21.455Z,25.64
2022-08-26T07:49:20.072Z,25.79
2022-08-26T07:50:20.021Z,25.99
2022-08-26T07:51:19.976Z,26.20
2022-08-26T07:52:24.033Z,26.40
2022-08-26T07:53:19.922Z,26.61
2022-08-26T07:54:19.971Z,26.76
2022-08-26T07:55:19.950Z,26.87
2022-08-26T07:56:19.903Z,27.04
2022-08-26T07:57:19.884Z,27.06
2022-08-26T07:58:19.860Z,27.20
2022-08-26T07:59:19.855Z,27.20
2022-08-26T08:00:19.879Z,27.28
2022-08-26T08:01:19.927Z,27.35
2022-08-26T08:02:19.821Z,27.42
2022-08-26T08:03:19.823Z,27.39
2022-08-26T08:04:25.538Z,27.50
2022-08-26T08:05:19.850Z,27.61
2022-08-26T08:06:19.796Z,27.62
2022-08-26T08:07:19.773Z,27.73
2022-08-26T08:08:27.899Z,27.88
2022-08-26T08:09:19.757Z,28.04
2022-08-26T08:10:20.870Z,28.13
2022-08-26T08:11:19.749Z,28.23
2022-08-26T08:12:19.718Z,28.40
2022-08-26T08:13:19.710Z,28.54
2022-08-26T08:14:22.052Z,28.60
2022-08-26T08:15:19.689Z,28.60
2022-08-26T08:16:19.738Z,28.72
2022-08-26T08:17:19.671Z,28.82
2022-08-26T08:18:20.592Z,28.90
2022-08-26T08:19:19.648Z,28.82
2022-08-26T08:20:19.673Z,28.81
2022-08-26T08:21:22.084Z,28.90
2022-08-26T08:22:19.820Z,28.97
2022-08-26T08:23:19.616Z,29.13
2022-08-26T08:24:19.593Z,29.22
2022-08-26T08:25:19.594Z,29.37
2022-08-26T08:26:19.592Z,29.50
2022-08-26T08:27:23.442Z,29.66
2022-08-26T08:28:19.555Z,29.82
2022-08-26T08:29:19.550Z,29.94
2022-08-26T08:30:22.694Z,30.05
2022-08-26T08:31:38.729Z,30.12
2022-08-26T08:32:19.521Z,30.11
2022-08-26T08:33:19.509Z,30.12
2022-08-26T08:34:19.493Z,30.12
2022-08-26T08:35:19.486Z,29.97
2022-08-26T08:36:20.531Z,29.86
2022-08-26T08:37:19.466Z,29.77
2022-08-26T08:38:19.453Z,29.62
2022-08-26T08:39:19.449Z,29.59
2022-08-26T08:40:19.549Z,29.53
2022-08-26T08:41:19.448Z,29.49
2022-08-26T08:42:19.413Z,29.43
2022-08-26T08:43:19.404Z,29.37
2022-08-26T08:44:19.411Z,29.31
2022-08-26T08:45:19.386Z,29.15
2022-08-26T08:46:19.442Z,28.97
2022-08-26T08:47:19.368Z,28.80
2022-08-26T08:48:19.353Z,28.73
2022-08-26T08:49:19.355Z,28.73
2022-08-26T08:50:19.331Z,28.78
2022-08-26T08:51:19.345Z,28.82
2022-08-26T08:52:19.309Z,28.88
2022-08-26T08:53:19.303Z,28.95
2022-08-26T08:54:19.287Z,28.96
2022-08-26T08:55:19.284Z,28.97
2022-08-26T08:56:19.288Z,28.90
2022-08-26T08:57:19.266Z,28.87
2022-08-26T08:58:19.254Z,28.85
2022-08-26T08:59:19.241Z,28.88
2022-08-26T09:00:19.331Z,28.90
2022-08-26T09:01:19.282Z,29.04
2022-08-26T09:02:19.285Z,29.10
2022-08-26T09:03:19.204Z,29.11
2022-08-26T09:04:19.191Z,29.00
2022-08-26T09:05:19.185Z,29.01
2022-08-26T09:06:19.196Z,29.08
2022-08-26T09:07:19.163Z,29.08
2022-08-26T09:08:19.851Z,29.01
2022-08-26T09:09:19.143Z,29.10
2022-08-26T09:10:19.128Z,29.16
2022-08-26T09:11:19.145Z,29.26
2022-08-26T09:12:19.114Z,29.38
2022-08-26T09:13:24.913Z,29.43
2022-08-26T09:14:19.152Z,29.44
2022-08-26T09:15:19.086Z,29.34
2022-08-26T09:16:20.339Z,29.25
2022-08-26T09:17:19.059Z,29.11
2022-08-26T09:18:19.046Z,29.04
2022-08-26T09:19:19.343Z,29.04
2022-08-26T09:20:19.027Z,29.00
2022-08-26T09:21:19.037Z,29.06
2022-08-26T09:22:19.074Z,29.16
2022-08-26T09:23:18.999Z,29.19
2022-08-26T09:24:18.983Z,29.26
2022-08-26T09:25:18.977Z,29.37
2022-08-26T09:26:18.980Z,29.45
2022-08-26T09:27:18.960Z,29.53
2022-08-26T09:28:18.949Z,29.59
2022-08-26T09:30:18.926Z,29.78
2022-08-26T09:31:19.034Z,29.82
2022-08-26T09:32:18.901Z,29.87
2022-08-26T09:33:18.900Z,29.82
2022-08-26T09:34:19.044Z,29.70
2022-08-26T09:35:18.879Z,29.72
2022-08-26T09:36:18.891Z,29.78
2022-08-26T09:37:18.860Z,29.87
2022-08-26T09:38:18.846Z,29.84
2022-08-26T09:39:18.854Z,29.75
2022-08-26T09:40:18.893Z,29.66
2022-08-26T09:41:18.841Z,29.60
2022-08-26T09:42:18.805Z,29.53
2022-08-26T09:43:22.175Z,29.50
2022-08-26T09:44:18.956Z,29.47
2022-08-26T09:45:18.778Z,29.47
2022-08-26T09:46:18.910Z,29.37
2022-08-26T09:47:18.757Z,29.33
2022-08-26T09:48:18.744Z,29.33
2022-08-26T09:49:18.740Z,29.38
2022-08-26T09:50:18.724Z,29.41
2022-08-26T09:51:18.733Z,29.55
2022-08-26T09:52:18.702Z,29.68
2022-08-26T09:53:20.883Z,29.75
2022-08-26T09:54:20.734Z,29.84
2022-08-26T09:55:18.676Z,29.90
2022-08-26T09:56:18.686Z,29.96
2022-08-26T09:57:18.661Z,29.99
2022-08-26T09:58:18.665Z,29.90
2022-08-26T09:59:18.915Z,29.77
2022-08-26T10:00:18.652Z,29.66
2022-08-26T10:01:19.505Z,29.55
2022-08-26T10:02:18.615Z,29.52
2022-08-26T10:03:18.619Z,29.57
2022-08-26T10:04:18.634Z,29.65
2022-08-26T10:05:18.575Z,29.68
2022-08-26T10:06:20.877Z,29.62
2022-08-26T10:07:18.589Z,29.57
2022-08-26T10:08:18.540Z,29.49
2022-08-26T10:09:18.544Z,29.52
2022-08-26T10:10:18.521Z,29.57
2022-08-26T10:11:18.537Z,29.70
2022-08-26T10:12:18.500Z,29.77
2022-08-26T10:13:18.495Z,29.77
2022-08-26T10:14:18.480Z,29.71
2022-08-26T10:15:18.493Z,29.84
2022-08-26T10:16:18.518Z,29.86
2022-08-26T10:17:18.470Z,29.89
2022-08-26T10:18:18.443Z,29.93
2022-08-26T10:19:18.472Z,29.99
2022-08-26T10:20:23.407Z,29.99
2022-08-26T10:21:18.445Z,29.87
2022-08-26T10:22:18.401Z,29.81
2022-08-26T10:23:18.397Z,29.86
2022-08-26T10:24:18.409Z,29.90
2022-08-26T10:25:18.376Z,30.02
2022-08-26T10:26:18.380Z,30.05
2022-08-26T10:27:18.357Z,30.11
2022-08-26T10:28:18.342Z,30.12
2022-08-26T10:29:18.336Z,30.11
2022-08-26T10:30:18.318Z,30.21
2022-08-26T10:31:18.373Z,30.30
2022-08-26T10:32:18.386Z,30.29
2022-08-26T10:33:18.348Z,30.19
2022-08-26T10:34:18.280Z,30.19
2022-08-26T10:35:18.272Z,30.03
2022-08-26T10:36:20.206Z,29.90
2022-08-26T10:37:18.255Z,29.84
2022-08-26T10:38:18.247Z,29.86
2022-08-26T10:39:18.235Z,29.79
2022-08-26T10:40:18.359Z,29.63
2022-08-26T10:41:18.311Z,29.45
2022-08-26T10:42:18.218Z,29.22
2022-08-26T10:43:18.196Z,28.96
2022-08-26T10:44:18.178Z,28.84
2022-08-26T10:45:18.173Z,28.85
2022-08-26T10:46:18.216Z,28.90
2022-08-26T10:47:18.152Z,28.87
2022-08-26T10:48:18.202Z,28.85
2022-08-26T10:49:18.134Z,28.91
2022-08-26T10:50:18.276Z,28.93
2022-08-26T10:51:18.141Z,28.90
2022-08-26T10:52:18.103Z,28.80
2022-08-26T10:53:18.096Z,28.70
2022-08-26T10:54:18.095Z,28.62
2022-08-26T10:55:18.078Z,28.58
2022-08-26T10:56:19.127Z,28.53
2022-08-26T10:57:18.057Z,28.51
2022-08-26T10:58:26.146Z,28.56
2022-08-26T10:59:18.038Z,28.59
2022-08-26T11:00:18.017Z,28.63
2022-08-26T11:01:22.861Z,28.66
2022-08-26T11:02:22.832Z,28.70
2022-08-26T11:03:21.954Z,28.75
2022-08-26T11:04:18.041Z,28.85
2022-08-26T11:05:17.971Z,28.90
2022-08-26T11:06:17.974Z,28.93
2022-08-26T11:07:17.951Z,28.95
2022-08-26T11:08:17.934Z,28.95
2022-08-26T11:09:17.937Z,28.91
2022-08-26T11:10:17.921Z,28.81
2022-08-26T11:11:17.930Z,28.81
2022-08-26T11:12:17.899Z,28.82
2022-08-26T11:13:17.887Z,28.93
2022-08-26T11:14:17.880Z,29.04
2022-08-26T11:15:17.897Z,29.11
2022-08-26T11:16:17.899Z,29.20
2022-08-26T11:17:17.853Z,29.34
2022-08-26T11:18:17.844Z,29.40
2022-08-26T11:19:17.827Z,29.50
2022-08-26T11:20:17.865Z,29.62
2022-08-26T11:21:17.825Z,29.71
2022-08-26T11:22:17.800Z,29.63
2022-08-26T11:23:17.808Z,29.50
2022-08-26T11:24:17.792Z,29.43
2022-08-26T11:25:18.373Z,29.45
2022-08-26T11:26:35.417Z,29.50
2022-08-26T11:27:17.752Z,29.50
2022-08-26T11:28:17.740Z,29.40
2022-08-26T11:29:17.726Z,29.43
2022-08-26T11:30:18.378Z,29.49
2022-08-26T11:31:17.769Z,29.57
2022-08-26T11:32:17.749Z,29.62
2022-08-26T11:33:17.686Z,29.59
2022-08-26T11:34:17.675Z,29.55
2022-08-26T11:35:17.755Z,29.53
2022-08-26T11:36:17.670Z,29.57
2022-08-26T11:37:17.704Z,29.66
2022-08-26T11:38:17.629Z,29.82
2022-08-26T11:39:17.625Z,29.96
2022-08-26T11:40:17.654Z,30.11
2022-08-26T11:41:17.625Z,30.21
2022-08-26T11:42:20.235Z,30.27
2022-08-26T11:43:17.583Z,30.29
2022-08-26T11:44:17.567Z,30.36
2022-08-26T11:45:17.564Z,30.40
2022-08-26T11:46:17.673Z,30.30
2022-08-26T11:47:17.544Z,30.23
2022-08-26T11:48:17.528Z,30.14
2022-08-26T11:49:17.531Z,30.19
2022-08-26T11:50:17.512Z,30.23
2022-08-26T11:51:17.513Z,30.24
2022-08-26T11:52:17.511Z,30.27
2022-08-26T11:53:17.477Z,30.30
2022-08-26T11:54:17.473Z,30.30
2022-08-26T11:55:17.462Z,30.37
2022-08-26T11:56:17.472Z,30.38
2022-08-26T11:57:17.436Z,30.34
2022-08-26T11:58:17.435Z,30.34
2022-08-26T11:59:17.415Z,30.37
2022-08-26T12:00:20.941Z,30.36
2022-08-26T12:01:17.421Z,30.40
2022-08-26T12:02:17.739Z,30.50
2022-08-26T12:03:17.458Z,30.62
2022-08-26T12:04:17.533Z,30.68
2022-08-26T12:05:17.353Z,30.74
2022-08-26T12:06:17.438Z,30.69
2022-08-26T12:07:23.848Z,30.68
2022-08-26T12:08:17.339Z,30.71
2022-08-26T12:09:17.322Z,30.72
2022-08-26T12:10:17.323Z,30.76
2022-08-26T12:11:17.334Z,30.84
2022-08-26T12:12:17.300Z,30.83
2022-08-26T12:13:17.275Z,30.80
2022-08-26T12:14:17.268Z,30.74
2022-08-26T12:15:17.272Z,30.74
2022-08-26T12:16:17.314Z,30.76
2022-08-26T12:17:17.234Z,30.81
2022-08-26T12:18:17.228Z,30.90
2022-08-26T12:19:17.212Z,30.96
2022-08-26T12:20:17.210Z,31.02
2022-08-26T12:21:17.215Z,31.05
2022-08-26T12:22:17.190Z,31.09
2022-08-26T12:23:17.177Z,31.15
2022-08-26T12:24:17.167Z,31.21
2022-08-26T12:25:17.152Z,31.24
2022-08-26T12:26:17.167Z,31.30
2022-08-26T12:27:17.130Z,31.38
2022-08-26T12:28:17.540Z,31.46
2022-08-26T12:29:20.145Z,31.50
2022-08-26T12:30:17.932Z,31.50
2022-08-26T12:31:17.560Z,31.50
2022-08-26T12:32:17.089Z,31.60
2022-08-26T12:33:22.022Z,31.65
2022-08-26T12:34:17.861Z,31.72
2022-08-26T12:35:17.054Z,31.76
2022-08-26T12:36:17.066Z,31.80
2022-08-26T12:37:17.035Z,31.68
2022-08-26T12:38:17.035Z,31.55
2022-08-26T12:39:17.014Z,31.42
2022-08-26T12:40:17.124Z,31.40
2022-08-26T12:41:17.015Z,31.40
2022-08-26T12:42:16.990Z,31.39
2022-08-26T12:43:16.994Z,31.48
2022-08-26T12:44:16.968Z,31.65
2022-08-26T12:45:16.954Z,31.84
2022-08-26T12:46:16.969Z,31.96
2022-08-26T12:47:16.934Z,31.92
2022-08-26T12:48:16.955Z,31.76
2022-08-26T12:49:16.914Z,31.58
2022-08-26T12:50:16.909Z,31.58
2022-08-26T12:51:16.912Z,31.60
2022-08-26T12:52:16.888Z,31.65
2022-08-26T12:53:16.875Z,31.79